createdAt,value
2019-03-18T00:03:26.078Z,1.95
2019-03-18T00:07:29.718Z,2.22
2019-03-18T00:11:33.470Z,2.08
2019-03-18T00:15:37.041Z,1.67
2019-03-18T00:19:42.822Z,2.20
2019-03-18T00:23:46.031Z,2.20
2019-03-18T00:27:49.688Z,2.25
2019-03-18T00:31:53.451Z,2.37
2019-03-18T00:35:57.269Z,2.20
2019-03-18T00:40:01.099Z,2.05
2019-03-18T00:44:04.807Z,1.52
2019-03-18T00:48:08.620Z,2.20
2019-03-18T00:52:12.383Z,2.10
2019-03-18T00:56:15.934Z,2.33
2019-03-18T01:00:20.124Z,1.80
2019-03-18T01:04:23.661Z,2.40
2019-03-18T01:08:27.451Z,2.45
2019-03-18T01:12:31.061Z,2.08
2019-03-18T01:16:34.805Z,2.25
2019-03-18T01:20:38.480Z,2.33
2019-03-18T01:24:42.159Z,2.60
2019-03-18T01:28:45.817Z,2.25
2019-03-18T01:32:49.718Z,3.12
2019-03-18T01:36:53.432Z,2.75
2019-03-18T01:40:57.139Z,2.85
2019-03-18T01:45:03.522Z,3.20
2019-03-18T01:49:07.131Z,4.65
2019-03-18T01:53:11.053Z,3.37
2019-03-18T01:57:14.616Z,3.98
2019-03-18T02:01:18.149Z,4.42
2019-03-18T02:05:21.863Z,4.12
2019-03-18T02:09:25.517Z,4.67
2019-03-18T02:13:29.116Z,5.05
2019-03-18T02:17:32.897Z,4.80
2019-03-18T02:21:36.676Z,5.25
2019-03-18T02:25:40.305Z,4.97
2019-03-18T02:29:44.141Z,5.17
2019-03-18T02:33:47.967Z,6.37
2019-03-18T02:37:51.637Z,5.62
2019-03-18T02:41:55.377Z,5.62
2019-03-18T02:46:10.021Z,6.10
2019-03-18T02:50:05.799Z,6.97
2019-03-18T02:54:09.581Z,7.67
2019-03-18T02:58:13.253Z,7.83
2019-03-18T03:02:16.816Z,6.25
2019-03-18T03:06:20.436Z,6.97
2019-03-18T03:10:24.254Z,7.30
2019-03-18T03:14:27.791Z,6.58
2019-03-18T03:18:31.417Z,7.15
2019-03-18T03:22:35.079Z,6.92
2019-03-18T03:26:38.671Z,7.37
2019-03-18T03:30:42.267Z,6.22
2019-03-18T03:34:46.048Z,7.50
2019-03-18T03:38:49.762Z,7.40
2019-03-18T03:42:53.578Z,7.34
2019-03-18T03:46:57.451Z,7.72
2019-03-18T03:51:01.273Z,8.05
2019-03-18T03:55:06.664Z,7.45
2019-03-18T03:59:10.419Z,9.10
2019-03-18T04:03:14.075Z,9.15
2019-03-18T04:07:18.084Z,8.48
2019-03-18T04:11:21.681Z,8.65
2019-03-18T04:15:25.311Z,7.55
2019-03-18T04:19:29.219Z,9.05
2019-03-18T04:23:32.830Z,9.25
2019-03-18T04:27:36.698Z,8.92
2019-03-18T04:31:41.506Z,9.93
2019-03-18T04:35:45.302Z,8.48
2019-03-18T04:39:49.064Z,9.28
2019-03-18T04:43:52.688Z,8.28
2019-03-18T04:47:56.294Z,8.50
2019-03-18T04:51:59.860Z,9.15
2019-03-18T04:56:03.564Z,9.30
2019-03-18T05:00:10.653Z,9.20
2019-03-18T05:04:14.155Z,8.67
2019-03-18T05:08:17.798Z,9.08
2019-03-18T05:12:21.377Z,8.43
2019-03-18T05:16:25.048Z,8.20
2019-03-18T05:20:28.609Z,8.10
2019-03-18T05:24:32.178Z,7.83
2019-03-18T05:28:35.789Z,9.35
2019-03-18T05:32:39.467Z,7.75
2019-03-18T05:36:43.166Z,6.78
2019-03-18T05:40:46.957Z,6.78
2019-03-18T05:44:50.654Z,6.35
2019-03-18T05:48:54.259Z,5.58
2019-03-18T05:52:58.046Z,6.03
2019-03-18T05:57:01.693Z,6.53
2019-03-18T06:01:05.919Z,6.78
2019-03-18T06:05:11.121Z,5.95
2019-03-18T06:09:14.940Z,8.05
2019-03-18T06:13:18.595Z,6.53
2019-03-18T06:17:22.104Z,6.17
2019-03-18T06:21:25.607Z,7.33
2019-03-18T06:25:35.049Z,6.00
2019-03-18T06:29:44.073Z,6.28
2019-03-18T06:34:12.352Z,6.92
2019-03-18T06:38:18.451Z,6.33
2019-03-18T06:42:30.817Z,7.12
2019-03-18T06:46:51.593Z,7.17
2019-03-18T06:51:05.178Z,5.87
2019-03-18T06:55:11.979Z,5.55
2019-03-18T06:59:25.368Z,7.17
2019-03-18T07:03:44.627Z,6.47
2019-03-18T07:07:55.204Z,6.47
2019-03-18T07:12:01.814Z,6.15
2019-03-18T07:16:17.303Z,5.97
2019-03-18T07:20:25.836Z,5.20
2019-03-18T07:24:37.181Z,5.30
2019-03-18T07:28:50.817Z,4.55
2019-03-18T07:32:54.371Z,3.77
2019-03-18T07:36:57.965Z,4.37
2019-03-18T07:41:09.690Z,3.60
2019-03-18T07:45:16.019Z,5.12
2019-03-18T07:49:19.837Z,3.72
2019-03-18T07:53:23.314Z,3.76
2019-03-18T07:57:26.824Z,3.62
2019-03-18T08:01:30.327Z,4.80
2019-03-18T08:05:33.825Z,3.67
2019-03-18T08:09:37.418Z,3.15
2019-03-18T08:13:40.963Z,4.55
2019-03-18T08:17:48.124Z,4.30
2019-03-18T08:21:52.391Z,3.60
2019-03-18T08:25:56.924Z,3.40
2019-03-18T08:30:00.883Z,2.95
2019-03-18T08:34:04.734Z,4.12
2019-03-18T08:38:14.622Z,4.20
2019-03-18T08:42:18.226Z,3.47
2019-03-18T08:46:35.390Z,2.95
2019-03-18T08:55:28.102Z,3.00
2019-03-18T08:59:32.372Z,2.98
2019-03-18T09:03:41.270Z,2.87
2019-03-18T09:07:53.061Z,3.15
2019-03-18T09:16:18.450Z,3.02
2019-03-18T09:20:26.469Z,3.30
2019-03-18T09:24:37.815Z,3.85
2019-03-18T09:29:08.957Z,3.35
2019-03-18T09:33:25.370Z,2.90
2019-03-18T09:37:29.433Z,3.35
2019-03-18T09:41:34.894Z,2.70
2019-03-18T09:45:43.233Z,2.53
2019-03-18T09:49:48.458Z,2.47
2019-03-18T09:53:52.368Z,2.22
2019-03-18T09:57:56.390Z,2.15
2019-03-18T10:02:02.027Z,2.00
2019-03-18T10:06:05.901Z,2.27
2019-03-18T10:10:14.201Z,2.40
2019-03-18T10:14:20.840Z,1.30
2019-03-18T10:18:24.470Z,1.95
2019-03-18T10:22:28.420Z,1.60
2019-03-18T10:26:32.250Z,1.92
2019-03-18T10:30:38.595Z,1.70
2019-03-18T10:34:42.430Z,2.55
2019-03-18T10:38:46.287Z,3.08
2019-03-18T10:42:52.221Z,3.00
2019-03-18T10:47:02.861Z,3.12
2019-03-18T10:51:13.881Z,2.75
2019-03-18T10:55:18.066Z,2.30
2019-03-18T10:59:25.219Z,2.33
2019-03-18T11:08:08.494Z,1.72
2019-03-18T11:12:16.140Z,2.77
2019-03-18T11:16:20.175Z,2.15
2019-03-18T11:20:24.059Z,2.67
2019-03-18T11:24:27.615Z,2.00
2019-03-18T11:28:31.130Z,3.02
2019-03-18T11:32:37.140Z,2.75
2019-03-18T11:36:42.216Z,1.70
2019-03-18T11:40:53.253Z,2.87
2019-03-18T11:45:00.491Z,1.90
2019-03-18T11:49:15.199Z,2.77
2019-03-18T11:53:23.251Z,1.80
2019-03-18T11:57:57.258Z,2.25
2019-03-18T12:02:02.486Z,2.92
2019-03-18T12:06:19.421Z,2.80
2019-03-18T12:10:26.235Z,2.37
2019-03-18T12:14:34.514Z,2.87
2019-03-18T12:18:38.059Z,3.52
2019-03-18T12:22:41.907Z,3.17
2019-03-18T12:26:45.531Z,3.05
2019-03-18T12:30:53.962Z,2.90
2019-03-18T12:34:59.060Z,2.25
2019-03-18T12:39:02.679Z,2.85
2019-03-18T12:43:09.576Z,1.92
2019-03-18T12:47:16.221Z,2.42
2019-03-18T12:51:32.935Z,2.55
2019-03-18T12:55:35.241Z,2.92
2019-03-18T12:59:38.859Z,2.52
2019-03-18T13:03:42.577Z,2.67
2019-03-18T13:07:51.163Z,2.98
2019-03-18T13:11:54.727Z,3.10
2019-03-18T13:15:59.792Z,2.37
2019-03-18T13:20:06.053Z,2.85
2019-03-18T13:24:10.768Z,3.30
2019-03-18T13:28:16.385Z,3.40
2019-03-18T13:32:20.309Z,2.42
2019-03-18T13:36:25.507Z,2.25
2019-03-18T13:40:30.046Z,2.58
2019-03-18T13:44:33.761Z,2.55
2019-03-18T13:48:37.310Z,2.30
2019-03-18T13:52:40.981Z,3.92
2019-03-18T13:56:44.673Z,2.45
2019-03-18T14:00:49.130Z,3.65
2019-03-18T14:04:54.043Z,2.45
2019-03-18T14:08:59.703Z,2.62
2019-03-18T14:13:05.321Z,2.58
2019-03-18T14:17:12.094Z,2.90
2019-03-18T14:21:19.078Z,2.98
2019-03-18T14:25:22.980Z,2.87
2019-03-18T14:29:29.534Z,3.47
2019-03-18T14:33:38.180Z,2.37
2019-03-18T14:37:44.131Z,3.62
2019-03-18T14:41:47.760Z,2.50
2019-03-18T14:45:52.165Z,2.98
2019-03-18T14:49:57.465Z,4.00
2019-03-18T14:54:01.073Z,2.92
2019-03-18T14:58:04.666Z,2.60
2019-03-18T15:02:08.219Z,2.90
2019-03-18T15:06:11.875Z,2.70
2019-03-18T15:10:21.031Z,2.45
2019-03-18T15:14:26.262Z,2.15
2019-03-18T15:18:30.000Z,2.37
2019-03-18T15:22:33.770Z,2.72
2019-03-18T15:26:37.258Z,2.22
2019-03-18T15:30:41.109Z,3.00
2019-03-18T15:34:44.825Z,3.62
2019-03-18T15:38:48.623Z,3.15
2019-03-18T15:42:52.298Z,3.50
2019-03-18T15:46:56.377Z,2.50
2019-03-18T15:51:04.313Z,3.72
2019-03-18T15:55:11.814Z,3.37
2019-03-18T15:59:15.492Z,2.22
2019-03-18T16:03:19.237Z,2.50
2019-03-18T16:07:23.060Z,2.37
2019-03-18T16:11:33.703Z,2.70
2019-03-18T16:15:37.443Z,2.47
2019-03-18T16:19:43.566Z,2.27
2019-03-18T16:23:48.810Z,2.35
2019-03-18T16:27:52.782Z,2.50
2019-03-18T16:31:56.776Z,2.27
2019-03-18T16:36:01.667Z,2.12
2019-03-18T16:40:08.695Z,3.20
2019-03-18T16:44:14.198Z,2.50
2019-03-18T16:48:18.100Z,2.52
2019-03-18T16:52:21.571Z,2.75
2019-03-18T16:56:25.266Z,2.67
2019-03-18T17:00:29.126Z,2.60
2019-03-18T17:04:34.692Z,3.80
2019-03-18T17:08:38.530Z,2.08
2019-03-18T17:12:42.524Z,2.42
2019-03-18T17:16:51.906Z,2.98
2019-03-18T17:20:55.542Z,2.80
2019-03-18T17:24:59.359Z,3.80
2019-03-18T17:29:02.921Z,2.47
2019-03-18T17:33:06.422Z,2.70
2019-03-18T17:37:11.835Z,2.87
2019-03-18T17:41:15.369Z,3.05
2019-03-18T17:45:19.355Z,3.85
2019-03-18T17:49:23.008Z,2.93
2019-03-18T17:53:26.813Z,3.10
2019-03-18T17:57:30.365Z,2.40
2019-03-18T18:01:58.415Z,2.47
2019-03-18T18:06:07.950Z,1.98
2019-03-18T18:10:26.615Z,3.40
2019-03-18T18:24:11.387Z,13.45
2019-03-18T18:28:16.017Z,3.60
2019-03-18T18:32:19.570Z,3.00
2019-03-18T18:36:25.278Z,2.42
2019-03-18T18:40:30.667Z,2.27
2019-03-18T18:44:34.345Z,2.67
2019-03-18T18:48:37.870Z,2.75
2019-03-18T18:52:51.352Z,2.30
2019-03-18T18:56:55.053Z,2.40
2019-03-18T19:00:58.805Z,2.45
2019-03-18T19:05:04.051Z,5.50
2019-03-18T19:09:13.511Z,4.40
2019-03-18T19:13:17.888Z,3.45
2019-03-18T19:17:24.025Z,2.30
2019-03-18T19:21:27.536Z,2.45
2019-03-18T19:25:32.904Z,2.77
2019-03-18T19:29:36.510Z,3.52
2019-03-18T19:33:40.039Z,4.62
2019-03-18T19:37:46.894Z,2.90
2019-03-18T19:41:50.538Z,7.87
2019-03-18T19:45:56.707Z,3.72
2019-03-18T19:50:00.231Z,4.08
2019-03-18T19:54:03.828Z,4.25
2019-03-18T19:58:09.360Z,2.62
2019-03-18T20:02:13.312Z,3.20
2019-03-18T20:06:16.939Z,3.80
2019-03-18T20:10:21.680Z,3.10
2019-03-18T20:14:26.683Z,4.22
2019-03-18T20:18:30.199Z,4.05
2019-03-18T20:22:33.786Z,3.37
2019-03-18T20:26:40.218Z,2.55
2019-03-18T20:30:49.023Z,4.53
2019-03-18T20:34:54.565Z,4.33
2019-03-18T20:39:01.342Z,2.80
2019-03-18T20:43:05.035Z,3.50
2019-03-18T20:47:08.665Z,2.60
2019-03-18T20:51:12.715Z,4.25
2019-03-18T20:55:17.128Z,3.62
2019-03-18T20:59:20.795Z,3.15
2019-03-18T21:03:24.381Z,3.35
2019-03-18T21:07:28.511Z,3.12
2019-03-18T21:11:32.109Z,3.00
2019-03-18T21:15:50.346Z,2.70
2019-03-18T21:19:54.023Z,3.12
2019-03-18T21:23:57.546Z,4.62
2019-03-18T21:28:01.012Z,4.72
2019-03-18T21:32:04.696Z,4.25
2019-03-18T21:36:08.460Z,2.87
2019-03-18T21:40:19.202Z,2.90
2019-03-18T21:44:24.354Z,2.27
2019-03-18T21:48:27.952Z,6.25
2019-03-18T21:52:31.482Z,2.83
2019-03-18T21:56:35.160Z,1.85
2019-03-18T22:00:38.695Z,2.98
2019-03-18T22:04:42.319Z,2.83
2019-03-18T22:08:46.883Z,3.00
2019-03-18T22:12:53.076Z,3.08
2019-03-18T22:16:56.603Z,3.22
2019-03-18T22:21:01.395Z,2.92
2019-03-18T22:25:07.147Z,5.03
2019-03-18T22:29:21.044Z,2.70
2019-03-18T22:33:26.271Z,3.17
2019-03-18T22:37:29.802Z,4.22
2019-03-18T22:41:34.950Z,4.83
2019-03-18T22:45:42.239Z,3.58
2019-03-18T22:49:45.953Z,2.65
2019-03-18T22:53:49.601Z,3.30
2019-03-18T22:57:55.635Z,3.67
2019-03-18T23:01:59.427Z,2.77
2019-03-18T23:06:04.545Z,5.40
2019-03-18T23:10:10.379Z,4.00
2019-03-18T23:14:13.879Z,3.02
2019-03-18T23:18:23.456Z,3.02
2019-03-18T23:22:27.419Z,3.27
2019-03-18T23:26:30.939Z,3.40
2019-03-18T23:30:34.430Z,5.35
2019-03-18T23:34:39.163Z,3.50
2019-03-18T23:38:42.805Z,3.40
2019-03-18T23:42:46.433Z,3.83
2019-03-18T23:46:49.986Z,3.40
2019-03-18T23:50:54.145Z,5.47
2019-03-18T23:54:57.775Z,3.25
2019-03-18T23:59:04.448Z,3.22
